Nearby METAR Reports

 

KFRG - , , USA
Distance from station: SSW 12mi, 20km
Updated: 04/17/2024 11:53am
Partly cloudy
Partly cloudy
 Wind from ESE
Wind: ESE 14 mph , 22 km/h, Gust: 25 mph , 41 km/h
Temperature: 55°F , 13°C
Dew Point: 37°F , 3°C
Humidity: 51%
Barometer: 30.18 inHg , 1022 hPa
Clouds: Partly cloudy
Visibility: 10 miles , 16 km
Cloud details: Partly cloudy 11000 ft
2024/04/17 15:53 KFRG 171553Z 12012G22KT 10SM SCT110 13/03 A3018 RMK AO2 SLP218 T01330028
KISP - , , USA
Distance from station: ESE 14mi, 23km
Updated: 04/17/2024 11:56am
Mostly cloudy
Mostly cloudy
 Wind from E
Wind: E 15 mph , 24 km/h
Temperature: 55°F , 13°C
Dew Point: 34°F , 1°C
Humidity: 44%
Barometer: 30.17 inHg , 1021.7 hPa
Clouds: Mostly cloudy
Visibility: 10 miles , 16 km
Cloud details: Few Clouds 10000 ft
Mostly cloudy 25000 ft
2024/04/17 15:56 KISP 171556Z 10013KT 10SM FEW100 BKN250 13/01 A3017 RMK AO2 SLP216 T01330011
 
KBDR - , , USA
Distance from station: NNE 21mi, 34km
Updated: 04/17/2024 11:52am
Clear
Clear
 Wind from E
Wind: E 16 mph , 26 km/h
Temperature: 54°F , 12°C
Dew Point: 41°F , 5°C
Humidity: 63%
Barometer: 30.19 inHg , 1022.4 hPa
Clouds: Clear
Visibility: 10 miles , 16 km
2024/04/17 15:52 KBDR 171552Z 08014KT 10SM CLR 12/05 A3019 RMK AO2 SLP223 T01220050
KHPN - , , USA
Distance from station: WNW 22mi, 35km
Updated: 04/17/2024 11:56am
Partly cloudy
Partly cloudy
 Wind from ESE
Wind: ESE 8 mph , 13 km/h
Temperature: 57°F , 14°C
Dew Point: 37°F , 3°C
Humidity: 48%
Barometer: 30.15 inHg , 1021 hPa
Clouds: Partly cloudy
Visibility: 10 miles , 16 km
Cloud details: Few Clouds 4300 ft
Partly cloudy 5500 ft
2024/04/17 15:56 KHPN 171556Z 11007KT 10SM FEW043 SCT055 14/03 A3015 RMK AO2 SLP211 T01390028
 
KHWV - , , USA
Distance from station: ESE 26mi, 41km
Updated: 04/17/2024 11:56am
Few Clouds
Few Clouds
 Wind from ESE
Wind: ESE 9 mph , 15 km/h, Gust: 18 mph , 30 km/h
Temperature: 55°F , 13°C
Dew Point: 34°F , 1°C
Humidity: 44%
Barometer: 30.19 inHg , 1022.4 hPa
Clouds: Few Clouds
Visibility: 10 miles , 16 km
Cloud details: Few Clouds 9500 ft
2024/04/17 15:56 KHWV 171556Z AUTO 11008G16KT 070V150 10SM FEW095 13/01 A3019 RMK AO2 SLP223 T01280011
KJFK - , , USA
Distance from station: SW 29mi, 46km
Updated: 04/17/2024 11:51am
Mostly cloudy
Mostly cloudy
 Wind from E
Wind: E 15 mph , 24 km/h
Temperature: 57°F , 14°C
Dew Point: 41°F , 5°C
Humidity: 55%
Barometer: 30.17 inHg , 1021.7 hPa
Clouds: Mostly cloudy
Visibility: 10 miles , 16 km
Cloud details: Few Clouds 4500 ft
Few Clouds 12000 ft
Mostly cloudy 25000 ft
2024/04/17 15:51 KJFK 171551Z 09013KT 10SM FEW045 FEW120 BKN250 14/05 A3017 RMK AO2 SLP216 T01390050
 
KLGA - , , USA
Distance from station: WSW 29mi, 47km
Updated: 04/17/2024 11:51am
Mostly cloudy
Mostly cloudy
 Wind from NE
Wind: NE 15 mph , 24 km/h
Temperature: 54°F , 12°C
Dew Point: 39°F , 4°C
Humidity: 58%
Barometer: 30.16 inHg , 1021.3 hPa
Clouds: Mostly cloudy
Visibility: 10 miles , 16 km
Cloud details: Partly cloudy 10000 ft
Mostly cloudy 25000 ft
2024/04/17 15:51 KLGA 171551Z 04013KT 10SM SCT100 BKN250 12/04 A3016 RMK AO2 WSHFT 1456 SLP212 T01220044 $